createdAt,value
2022-10-31T00:01:40.583Z,14.04
2022-10-31T00:04:07.308Z,13.70
2022-10-31T00:06:34.030Z,13.59
2022-10-31T00:09:02.521Z,13.52
2022-10-31T00:11:29.721Z,13.35
2022-10-31T00:13:58.118Z,13.42
2022-10-31T00:16:26.379Z,13.29
2022-10-31T00:18:55.291Z,13.53
2022-10-31T00:21:22.291Z,13.67
2022-10-31T00:23:49.393Z,13.65
2022-10-31T00:26:17.413Z,13.46
2022-10-31T00:28:44.146Z,13.24
2022-10-31T00:31:12.623Z,12.96
2022-10-31T00:33:40.417Z,12.96
2022-10-31T00:36:08.877Z,13.14
2022-10-31T00:38:35.362Z,13.33
2022-10-31T00:41:01.968Z,13.38
2022-10-31T00:43:28.570Z,13.36
2022-10-31T00:45:55.116Z,13.36
2022-10-31T00:48:21.547Z,13.62
2022-10-31T00:50:47.976Z,13.66
2022-10-31T00:53:14.515Z,13.38
2022-10-31T00:55:41.012Z,13.28
2022-10-31T00:58:07.611Z,13.19
2022-10-31T01:00:34.193Z,13.44
2022-10-31T01:03:01.499Z,13.59
2022-10-31T01:05:28.272Z,13.61
2022-10-31T01:07:54.797Z,13.71
2022-10-31T01:10:21.266Z,13.64
2022-10-31T01:12:49.123Z,13.57
2022-10-31T01:15:21.798Z,13.56
2022-10-31T01:17:49.009Z,13.63
2022-10-31T01:20:16.643Z,13.65
2022-10-31T01:22:43.178Z,13.42
2022-10-31T01:25:10.734Z,13.42
2022-10-31T01:27:37.276Z,13.38
2022-10-31T01:30:05.096Z,13.31
2022-10-31T01:32:31.564Z,13.30
2022-10-31T01:34:58.055Z,13.49
2022-10-31T01:37:24.580Z,13.47
2022-10-31T01:39:51.059Z,13.48
2022-10-31T01:42:21.271Z,13.29
2022-10-31T01:44:52.433Z,13.35
2022-10-31T01:47:26.995Z,13.27
2022-10-31T01:49:57.504Z,13.27
2022-10-31T01:52:38.989Z,13.32
2022-10-31T01:55:15.015Z,13.27
2022-10-31T01:57:44.687Z,13.44
2022-10-31T02:00:12.547Z,13.37
2022-10-31T02:02:39.458Z,13.43
2022-10-31T02:05:10.111Z,13.22
2022-10-31T02:07:51.575Z,13.06
2022-10-31T02:10:19.844Z,13.04
2022-10-31T02:12:47.043Z,13.02
2022-10-31T02:15:13.736Z,12.90
2022-10-31T02:17:40.263Z,12.88
2022-10-31T02:20:19.540Z,12.93
2022-10-31T02:23:23.313Z,13.04
2022-10-31T02:26:11.559Z,12.88
2022-10-31T02:29:09.365Z,12.74
2022-10-31T02:32:00.937Z,12.71
2022-10-31T02:34:52.206Z,12.84
2022-10-31T02:37:27.332Z,13.01
2022-10-31T02:40:10.229Z,12.87
2022-10-31T02:43:03.459Z,12.88
2022-10-31T02:45:56.005Z,13.07
2022-10-31T02:48:27.963Z,12.95
2022-10-31T02:51:01.189Z,12.82
2022-10-31T02:53:27.756Z,12.89
2022-10-31T02:56:00.806Z,12.97
2022-10-31T02:58:35.637Z,12.99
2022-10-31T03:01:34.709Z,12.92
2022-10-31T03:04:17.054Z,13.20
2022-10-31T03:07:12.017Z,13.07
2022-10-31T03:09:44.181Z,12.85
2022-10-31T03:12:22.220Z,12.53
2022-10-31T03:15:18.711Z,12.66
2022-10-31T03:17:54.530Z,12.60
2022-10-31T03:20:26.060Z,12.62
2022-10-31T03:22:53.437Z,12.71
2022-10-31T03:25:20.014Z,12.66
2022-10-31T03:27:47.841Z,12.83
2022-10-31T03:30:15.343Z,12.55
2022-10-31T03:32:55.381Z,12.93
2022-10-31T03:35:24.526Z,12.96
2022-10-31T03:37:54.245Z,12.82
2022-10-31T03:40:24.378Z,12.98
2022-10-31T03:42:57.225Z,12.85
2022-10-31T03:45:34.484Z,12.88
2022-10-31T03:48:01.550Z,12.79
2022-10-31T03:50:37.673Z,13.02
2022-10-31T03:53:14.297Z,13.15
2022-10-31T03:55:46.328Z,13.22
2022-10-31T03:58:38.183Z,13.15
2022-10-31T04:01:07.701Z,12.89
2022-10-31T04:03:37.271Z,12.93
2022-10-31T04:06:08.107Z,12.85
2022-10-31T04:08:53.714Z,12.76
2022-10-31T04:11:24.256Z,12.84
2022-10-31T04:13:51.557Z,12.82
2022-10-31T04:16:18.952Z,12.82
2022-10-31T04:18:45.634Z,12.79
2022-10-31T04:21:12.127Z,12.89
2022-10-31T04:23:38.687Z,12.85
2022-10-31T04:26:05.311Z,13.12
2022-10-31T04:28:33.725Z,12.51
2022-10-31T04:31:00.549Z,12.56
2022-10-31T04:33:27.039Z,12.49
2022-10-31T04:35:53.553Z,12.40
2022-10-31T04:38:20.347Z,12.51
2022-10-31T04:40:46.905Z,12.56
2022-10-31T04:43:13.464Z,12.53
2022-10-31T04:45:39.996Z,12.72
2022-10-31T04:48:06.447Z,12.41
2022-10-31T04:50:32.911Z,12.61
2022-10-31T04:52:59.445Z,12.55
2022-10-31T04:55:25.970Z,12.53
2022-10-31T04:57:52.442Z,12.45
2022-10-31T05:00:20.968Z,12.48
2022-10-31T05:02:48.983Z,12.43
2022-10-31T05:05:17.224Z,12.29
2022-10-31T05:07:46.053Z,12.46
2022-10-31T05:10:14.827Z,12.54
2022-10-31T05:12:59.779Z,12.33
2022-10-31T05:15:27.975Z,12.41
2022-10-31T05:17:55.184Z,12.25
2022-10-31T05:20:25.059Z,12.31
2022-10-31T05:22:53.808Z,12.29
2022-10-31T05:25:22.748Z,12.60
2022-10-31T05:27:51.290Z,12.70
2022-10-31T05:30:21.224Z,12.50
2022-10-31T05:32:49.632Z,12.36
2022-10-31T05:35:23.297Z,12.57
2022-10-31T05:37:50.044Z,12.55
2022-10-31T05:40:18.244Z,12.50
2022-10-31T05:42:45.220Z,12.76
2022-10-31T05:45:14.611Z,12.54
2022-10-31T05:47:41.088Z,12.39
2022-10-31T05:50:09.151Z,12.40
2022-10-31T05:52:36.323Z,12.88
2022-10-31T05:55:03.754Z,12.61
2022-10-31T05:57:32.073Z,12.63
2022-10-31T05:59:58.525Z,12.44
2022-10-31T06:02:25.038Z,12.38
2022-10-31T06:04:51.630Z,12.25
2022-10-31T06:07:18.959Z,12.49
2022-10-31T06:09:45.464Z,12.70
2022-10-31T06:12:11.953Z,12.80
2022-10-31T06:14:38.417Z,12.64
2022-10-31T06:17:04.915Z,12.38
2022-10-31T06:19:34.783Z,12.41
2022-10-31T06:22:01.435Z,12.50
2022-10-31T06:24:27.959Z,12.17
2022-10-31T06:26:54.423Z,12.54
2022-10-31T06:29:20.969Z,12.62
2022-10-31T06:31:47.439Z,12.50
2022-10-31T06:34:13.905Z,12.57
2022-10-31T06:36:42.437Z,12.64
2022-10-31T06:39:08.999Z,12.70
2022-10-31T06:41:37.461Z,12.52
2022-10-31T06:44:06.540Z,12.76
2022-10-31T06:46:35.396Z,12.85
2022-10-31T06:49:01.882Z,12.87
2022-10-31T06:51:28.382Z,12.95
2022-10-31T06:53:54.889Z,12.93
2022-10-31T06:56:21.369Z,13.26
2022-10-31T06:58:47.847Z,13.05
2022-10-31T07:01:14.635Z,13.24
2022-10-31T07:03:41.203Z,13.23
2022-10-31T07:06:07.698Z,13.30
2022-10-31T07:08:34.186Z,13.40
2022-10-31T07:11:00.712Z,13.58
2022-10-31T07:13:27.180Z,13.87
2022-10-31T07:15:55.899Z,14.11
2022-10-31T07:18:22.892Z,13.93
2022-10-31T07:20:49.488Z,14.18
2022-10-31T07:23:19.106Z,14.71
2022-10-31T07:25:45.673Z,14.76
2022-10-31T07:28:12.434Z,14.45
2022-10-31T07:30:39.246Z,14.58
2022-10-31T07:33:06.694Z,14.13
2022-10-31T07:35:33.331Z,14.04
2022-10-31T07:38:08.920Z,14.05
2022-10-31T07:40:35.429Z,14.14
2022-10-31T07:43:01.896Z,13.91
2022-10-31T07:45:29.080Z,14.01
2022-10-31T07:47:58.794Z,14.61
2022-10-31T07:50:34.888Z,15.60
2022-10-31T07:53:09.550Z,15.95
2022-10-31T07:55:36.940Z,16.14
2022-10-31T07:58:05.652Z,16.44
2022-10-31T08:00:33.853Z,18.26
2022-10-31T08:03:11.674Z,18.24
2022-10-31T08:05:38.755Z,17.55
2022-10-31T08:08:06.195Z,17.01
2022-10-31T08:10:33.444Z,17.55
2022-10-31T08:13:02.368Z,18.06
2022-10-31T08:15:29.208Z,17.95
2022-10-31T08:17:55.870Z,18.08
2022-10-31T08:20:22.837Z,17.99
2022-10-31T08:23:00.698Z,18.30
2022-10-31T08:25:30.982Z,19.16
2022-10-31T08:28:00.816Z,17.91
2022-10-31T08:30:32.441Z,17.80
2022-10-31T08:33:15.547Z,17.53
2022-10-31T08:35:42.098Z,16.65
2022-10-31T08:38:12.818Z,16.90
2022-10-31T08:40:39.948Z,16.74
2022-10-31T08:43:11.741Z,16.66
2022-10-31T08:45:38.264Z,16.19
2022-10-31T08:48:07.784Z,16.15
2022-10-31T08:50:35.995Z,15.79
2022-10-31T08:53:05.922Z,15.47
2022-10-31T08:55:35.309Z,15.89
2022-10-31T08:58:04.005Z,15.92
2022-10-31T09:00:30.797Z,15.75
2022-10-31T09:03:02.001Z,16.13
2022-10-31T09:05:29.127Z,15.92
2022-10-31T09:08:00.523Z,16.63
2022-10-31T09:10:28.762Z,16.21
2022-10-31T09:13:16.283Z,16.56
2022-10-31T09:15:44.885Z,16.51
2022-10-31T09:18:12.698Z,16.80
2022-10-31T09:20:41.055Z,16.73
2022-10-31T09:23:11.080Z,16.87
2022-10-31T09:25:38.012Z,17.50
2022-10-31T09:28:06.220Z,18.21
2022-10-31T09:30:35.283Z,18.38
2022-10-31T09:33:04.965Z,18.66
2022-10-31T09:35:31.793Z,18.42
2022-10-31T09:38:00.332Z,18.19
2022-10-31T09:40:39.209Z,18.01
2022-10-31T09:43:14.488Z,18.05
2022-10-31T09:45:56.227Z,18.21
2022-10-31T09:48:44.400Z,18.11
2022-10-31T09:51:16.551Z,18.79
2022-10-31T09:54:00.219Z,18.73
2022-10-31T09:56:28.400Z,19.39
2022-10-31T09:58:59.011Z,19.42
2022-10-31T10:01:42.741Z,19.64
2022-10-31T10:04:40.361Z,19.51
2022-10-31T10:07:22.171Z,19.04
2022-10-31T10:09:48.722Z,19.38
2022-10-31T10:12:29.668Z,19.60
2022-10-31T10:15:30.946Z,20.49
2022-10-31T10:18:36.257Z,20.16
2022-10-31T10:21:16.311Z,19.73
2022-10-31T10:23:54.888Z,19.78
2022-10-31T10:26:47.998Z,19.65
2022-10-31T10:29:35.537Z,19.27
2022-10-31T10:32:34.673Z,19.57
2022-10-31T10:35:12.643Z,19.38
2022-10-31T10:37:44.050Z,19.63
2022-10-31T10:40:19.151Z,19.55
2022-10-31T10:43:15.321Z,19.98
2022-10-31T10:46:06.547Z,20.52
2022-10-31T10:48:42.737Z,20.48
2022-10-31T10:51:31.964Z,20.77
2022-10-31T10:54:23.297Z,20.36
2022-10-31T10:57:32.986Z,19.84
2022-10-31T11:00:02.813Z,20.59
2022-10-31T11:02:33.685Z,20.64
2022-10-31T11:05:05.777Z,20.94
2022-10-31T11:07:40.236Z,20.47
2022-10-31T11:10:14.887Z,20.91
2022-10-31T11:12:43.326Z,21.53
2022-10-31T11:15:24.303Z,21.40
2022-10-31T11:17:53.818Z,21.96
2022-10-31T11:20:20.676Z,22.31
2022-10-31T11:22:49.208Z,22.33
2022-10-31T11:25:26.806Z,21.89
2022-10-31T11:28:01.286Z,21.97
2022-10-31T11:30:28.391Z,21.95
2022-10-31T11:32:55.191Z,22.00
2022-10-31T11:35:24.416Z,22.18
2022-10-31T11:37:59.743Z,22.17
2022-10-31T11:40:27.532Z,22.15
2022-10-31T11:42:57.425Z,22.03
2022-10-31T11:45:23.824Z,22.24
2022-10-31T11:47:58.197Z,22.16
2022-10-31T11:50:39.506Z,22.67
2022-10-31T11:53:15.964Z,22.75
2022-10-31T11:55:42.500Z,21.61
2022-10-31T11:58:23.845Z,22.34
2022-10-31T12:00:52.934Z,22.44
2022-10-31T12:03:39.859Z,22.61
2022-10-31T12:06:14.241Z,21.74
2022-10-31T12:08:42.752Z,22.59
2022-10-31T12:11:30.473Z,21.23
2022-10-31T12:14:01.264Z,21.14
2022-10-31T12:16:51.345Z,20.78
2022-10-31T12:19:55.294Z,21.86
2022-10-31T12:22:44.625Z,22.81
2022-10-31T12:25:21.708Z,21.75
2022-10-31T12:28:15.276Z,21.90
2022-10-31T12:30:50.748Z,22.84
2022-10-31T12:33:26.357Z,23.09
2022-10-31T12:36:17.112Z,23.63
2022-10-31T12:39:17.325Z,24.50
2022-10-31T12:41:49.564Z,24.09
2022-10-31T12:44:54.538Z,26.05
2022-10-31T12:47:46.420Z,26.08
2022-10-31T12:50:23.559Z,26.60
2022-10-31T12:53:26.897Z,27.29
2022-10-31T12:55:59.136Z,26.60
2022-10-31T12:58:52.508Z,25.10
2022-10-31T13:01:35.504Z,23.02
2022-10-31T13:04:14.811Z,22.69
2022-10-31T13:06:45.341Z,22.17
2022-10-31T13:09:20.420Z,22.02
2022-10-31T13:11:51.131Z,21.93
2022-10-31T13:14:23.344Z,21.91
2022-10-31T13:16:50.237Z,22.70
2022-10-31T13:19:35.367Z,22.03
2022-10-31T13:22:18.928Z,21.90
2022-10-31T13:24:53.682Z,22.04
2022-10-31T13:27:23.943Z,21.65
2022-10-31T13:29:53.463Z,22.10
2022-10-31T13:32:20.256Z,22.13
2022-10-31T13:34:52.597Z,22.60
2022-10-31T13:37:36.049Z,21.94
2022-10-31T13:40:31.613Z,21.59
2022-10-31T13:43:06.551Z,22.06
2022-10-31T13:45:33.102Z,22.11
2022-10-31T13:48:20.970Z,21.96
2022-10-31T13:51:03.024Z,22.07
2022-10-31T13:53:57.452Z,21.42
2022-10-31T13:56:25.357Z,22.10
2022-10-31T13:59:10.105Z,21.83
2022-10-31T14:01:37.823Z,21.18
2022-10-31T14:04:14.783Z,21.51
2022-10-31T14:06:58.238Z,21.13
2022-10-31T14:09:34.838Z,21.51
2022-10-31T14:12:23.237Z,21.23
2022-10-31T14:14:53.542Z,21.11
2022-10-31T14:17:24.682Z,20.77
2022-10-31T14:20:03.961Z,21.15
2022-10-31T14:22:42.921Z,21.53
2022-10-31T14:25:28.361Z,21.34
2022-10-31T14:27:54.999Z,21.60
2022-10-31T14:30:25.316Z,21.21
2022-10-31T14:32:59.519Z,20.93
2022-10-31T14:35:34.620Z,20.80
2022-10-31T14:38:37.994Z,21.10
2022-10-31T14:41:33.651Z,21.35
2022-10-31T14:44:18.444Z,20.83
2022-10-31T14:47:17.817Z,21.24
2022-10-31T14:50:03.262Z,21.91
2022-10-31T14:52:29.885Z,22.19
2022-10-31T14:54:59.713Z,22.56
2022-10-31T14:57:33.888Z,22.46
2022-10-31T15:00:07.158Z,21.65
2022-10-31T15:02:50.505Z,21.49
2022-10-31T15:05:17.513Z,21.40
2022-10-31T15:07:53.027Z,21.70
2022-10-31T15:10:23.453Z,22.23
2022-10-31T15:12:49.969Z,22.79
2022-10-31T15:15:35.456Z,22.97
2022-10-31T15:18:05.604Z,22.46
2022-10-31T15:20:39.441Z,21.51
2022-10-31T15:23:06.961Z,21.13
2022-10-31T15:25:36.377Z,20.93
2022-10-31T15:28:17.407Z,20.58
2022-10-31T15:30:52.409Z,20.11
2022-10-31T15:33:21.677Z,19.61
2022-10-31T15:36:03.256Z,19.64
2022-10-31T15:38:30.542Z,20.16
2022-10-31T15:41:20.246Z,20.65
2022-10-31T15:43:47.900Z,20.01
2022-10-31T15:46:14.590Z,19.17
2022-10-31T15:48:46.382Z,18.92
2022-10-31T15:51:13.511Z,19.32
2022-10-31T15:53:48.318Z,19.76
2022-10-31T15:56:22.864Z,19.17
2022-10-31T15:58:52.183Z,18.96
2022-10-31T16:01:27.544Z,19.42
2022-10-31T16:04:03.778Z,20.04
2022-10-31T16:06:30.985Z,20.20
2022-10-31T16:08:57.529Z,19.47
2022-10-31T16:11:39.954Z,18.82
2022-10-31T16:14:16.354Z,18.65
2022-10-31T16:16:49.187Z,19.01
2022-10-31T16:19:23.789Z,19.26
2022-10-31T16:22:04.930Z,18.80
2022-10-31T16:24:47.687Z,18.28
2022-10-31T16:27:29.284Z,18.63
2022-10-31T16:30:05.161Z,18.29
2022-10-31T16:32:53.770Z,18.45
2022-10-31T16:35:35.413Z,18.60
2022-10-31T16:38:02.083Z,18.90
2022-10-31T16:40:29.553Z,18.96
2022-10-31T16:42:58.699Z,19.21
2022-10-31T16:45:29.908Z,19.18
2022-10-31T16:48:06.682Z,18.99
2022-10-31T16:50:33.685Z,18.96
2022-10-31T16:53:13.420Z,19.15
2022-10-31T16:56:03.013Z,19.02
2022-10-31T16:58:34.481Z,18.51
2022-10-31T17:01:02.863Z,18.66
2022-10-31T17:03:29.428Z,19.03
2022-10-31T17:05:56.392Z,19.57
2022-10-31T17:08:24.682Z,19.79
2022-10-31T17:10:56.348Z,19.40
2022-10-31T17:13:25.475Z,19.42
2022-10-31T17:15:54.947Z,19.48
2022-10-31T17:18:26.921Z,18.63
2022-10-31T17:20:59.710Z,18.72
2022-10-31T17:23:27.078Z,19.22
2022-10-31T17:25:53.586Z,18.82
2022-10-31T17:28:20.376Z,18.91
2022-10-31T17:30:47.308Z,18.65
2022-10-31T17:33:15.776Z,18.65
2022-10-31T17:35:45.453Z,18.97
2022-10-31T17:38:12.635Z,18.64
2022-10-31T17:40:42.107Z,19.13
2022-10-31T17:43:12.404Z,18.98
2022-10-31T17:45:40.981Z,18.70
2022-10-31T17:48:09.462Z,17.81
2022-10-31T17:50:36.194Z,17.73
2022-10-31T17:53:03.054Z,17.80
2022-10-31T17:55:34.484Z,18.20
2022-10-31T17:58:04.327Z,18.64
2022-10-31T18:00:30.835Z,17.64
2022-10-31T18:02:57.436Z,17.72
2022-10-31T18:05:24.096Z,18.19
2022-10-31T18:07:51.122Z,18.47
2022-10-31T18:10:18.094Z,18.28
2022-10-31T18:12:44.696Z,18.40
2022-10-31T18:15:11.837Z,17.99
2022-10-31T18:17:41.944Z,17.21
2022-10-31T18:20:09.751Z,16.88
2022-10-31T18:22:36.418Z,17.71
2022-10-31T18:25:04.296Z,17.34
2022-10-31T18:27:30.874Z,17.32
2022-10-31T18:29:57.378Z,17.55
2022-10-31T18:32:27.433Z,17.99
2022-10-31T18:34:54.137Z,17.63
2022-10-31T18:37:20.634Z,17.83
2022-10-31T18:39:47.109Z,17.60
2022-10-31T18:42:13.716Z,17.36
2022-10-31T18:44:40.455Z,17.23
2022-10-31T18:47:06.936Z,17.35
2022-10-31T18:49:33.503Z,17.25
2022-10-31T18:52:00.388Z,17.23
2022-10-31T18:54:26.888Z,16.61
2022-10-31T18:56:53.518Z,16.54
2022-10-31T18:59:20.013Z,16.83
2022-10-31T19:01:46.791Z,17.17
2022-10-31T19:04:13.584Z,17.32
2022-10-31T19:06:40.143Z,17.46
2022-10-31T19:09:10.598Z,17.31
2022-10-31T19:11:38.030Z,17.75
2022-10-31T19:14:05.513Z,17.82
2022-10-31T19:16:33.694Z,17.35
2022-10-31T19:19:00.282Z,17.13
2022-10-31T19:21:27.372Z,17.31
2022-10-31T19:23:56.249Z,17.06
2022-10-31T19:26:22.816Z,16.52
2022-10-31T19:28:49.283Z,16.36
2022-10-31T19:31:15.988Z,16.48
2022-10-31T19:33:42.512Z,16.96
2022-10-31T19:36:12.310Z,16.99
2022-10-31T19:38:41.595Z,16.64
2022-10-31T19:41:11.661Z,16.64
2022-10-31T19:43:38.443Z,16.74
2022-10-31T19:46:06.251Z,16.48
2022-10-31T19:48:36.369Z,16.15
2022-10-31T19:51:09.125Z,16.19
2022-10-31T19:53:35.912Z,16.36
2022-10-31T19:56:02.973Z,16.08
2022-10-31T19:58:31.517Z,15.96
2022-10-31T20:03:29.923Z,16.16
2022-10-31T20:05:56.392Z,16.34
2022-10-31T20:08:23.214Z,16.49
2022-10-31T20:10:57.476Z,16.42
2022-10-31T20:13:24.837Z,16.49
2022-10-31T20:15:52.397Z,16.59
2022-10-31T20:18:19.128Z,16.58
2022-10-31T20:20:45.814Z,16.16
2022-10-31T20:23:12.368Z,16.17
2022-10-31T20:25:46.966Z,15.91
2022-10-31T20:28:13.441Z,16.07
2022-10-31T20:30:39.960Z,16.27
2022-10-31T20:33:06.723Z,16.19
2022-10-31T20:35:39.629Z,16.06
2022-10-31T20:38:07.568Z,16.16
2022-10-31T20:40:35.149Z,16.19
2022-10-31T20:43:02.815Z,16.01
2022-10-31T20:45:30.484Z,15.87
2022-10-31T20:47:57.726Z,16.31
2022-10-31T20:50:25.573Z,15.98
2022-10-31T20:52:52.698Z,15.50
2022-10-31T20:55:19.633Z,15.68
2022-10-31T20:57:46.235Z,15.51
2022-10-31T21:00:13.528Z,15.50
2022-10-31T21:02:43.904Z,15.65
2022-10-31T21:05:12.434Z,15.36
2022-10-31T21:07:40.156Z,16.00
2022-10-31T21:10:16.620Z,15.74
2022-10-31T21:12:46.231Z,15.55
2022-10-31T21:15:14.232Z,15.10
2022-10-31T21:17:41.603Z,15.32
2022-10-31T21:20:10.509Z,14.88
2022-10-31T21:22:37.909Z,15.37
2022-10-31T21:25:04.672Z,15.43
2022-10-31T21:27:31.356Z,15.08
2022-10-31T21:29:58.264Z,14.97
2022-10-31T21:32:24.929Z,15.09
2022-10-31T21:34:51.426Z,14.81
2022-10-31T21:37:17.959Z,14.94
2022-10-31T21:39:49.656Z,15.19
2022-10-31T21:42:20.565Z,15.28
2022-10-31T21:44:49.095Z,15.14
2022-10-31T21:47:16.196Z,14.71
2022-10-31T21:49:42.753Z,14.33
2022-10-31T21:52:09.631Z,14.92
2022-10-31T21:54:37.549Z,14.56
2022-10-31T21:57:04.177Z,14.64
2022-10-31T21:59:30.711Z,14.48
2022-10-31T22:01:59.600Z,14.32
2022-10-31T22:04:27.190Z,14.68
2022-10-31T22:06:53.877Z,14.37
2022-10-31T22:09:20.508Z,14.30
2022-10-31T22:11:47.067Z,14.45
2022-10-31T22:14:14.852Z,14.59
2022-10-31T22:16:42.163Z,14.49
2022-10-31T22:19:11.549Z,14.93
2022-10-31T22:21:41.366Z,14.56
2022-10-31T22:24:08.529Z,14.46
2022-10-31T22:26:35.926Z,14.38
2022-10-31T22:29:06.089Z,14.53
2022-10-31T22:31:33.931Z,14.42
2022-10-31T22:34:01.003Z,14.58
2022-10-31T22:36:30.123Z,14.49
2022-10-31T22:38:57.461Z,14.08
2022-10-31T22:41:34.815Z,14.19
2022-10-31T22:44:02.840Z,14.38
2022-10-31T22:46:31.512Z,14.94
2022-10-31T22:49:00.604Z,14.57
2022-10-31T22:51:29.564Z,14.45
2022-10-31T22:53:56.645Z,14.35
2022-10-31T22:56:25.456Z,14.43
2022-10-31T22:58:52.168Z,14.37
2022-10-31T23:01:21.106Z,14.35
2022-10-31T23:03:48.425Z,14.40
2022-10-31T23:06:17.522Z,14.31
2022-10-31T23:08:45.151Z,14.33
2022-10-31T23:11:24.093Z,14.54
2022-10-31T23:14:08.824Z,14.47
2022-10-31T23:16:55.188Z,14.34
2022-10-31T23:19:27.678Z,14.61
2022-10-31T23:22:01.795Z,14.56
2022-10-31T23:24:46.830Z,14.58
2022-10-31T23:27:14.812Z,14.55
2022-10-31T23:30:02.020Z,14.57
2022-10-31T23:32:32.006Z,14.60
2022-10-31T23:35:00.594Z,14.90
2022-10-31T23:37:29.727Z,14.77
2022-10-31T23:39:56.585Z,14.58
2022-10-31T23:42:24.276Z,14.73
2022-10-31T23:44:51.246Z,14.77
2022-10-31T23:47:18.926Z,14.83
2022-10-31T23:49:46.039Z,14.75
2022-10-31T23:52:13.548Z,14.79
2022-10-31T23:54:40.189Z,14.86
2022-10-31T23:57:06.691Z,14.79
2022-10-31T23:59:33.296Z,14.68
